Time;durP1;ratioP1;P1;durP2;ratioP2;P2;SDS_P1;SDS_P2;PMS_P1;PMS_P2;Temp;Humidity;BMP_temperature;BMP_pressure;BME280_temperature;BME280_humidity;BME280_pressure;Samples;Min_cycle;Max_cycle;Signal;HPM_P1;HPM_P2
2022/06/28 00:02:05;;;;;;;;;;;;;;;;;;5086563;28;20310;-48
2022/06/28 00:04:31;;;;;;;;;;;;;;;;;;5067253;28;20267;-49
2022/06/28 00:06:57;;;;;;;;;;;;;;;;;;5065522;28;19920;-48
2022/06/28 00:09:23;;;;;;;;;;;;;;;;;;5066026;28;19965;-46
2022/06/28 00:11:49;;;;;;;;;;;;;;;;;;5065933;28;20401;-50
2022/06/28 00:17:00;;;;;;;;;;;;;;;;;;5066192;28;19966;-50
2022/06/28 00:19:27;;;;;;;;;;;;;;;;;;5066117;28;19930;-49
2022/06/28 00:21:53;;;;;;;;;;;;;;;;;;5066017;28;20379;-51
2022/06/28 00:24:19;;;;;;;;;;;;;;;;;;5066122;28;19936;-48
2022/06/28 00:26:46;;;;;;;;;;;;;;;;;;5069196;28;19924;-49
2022/06/28 00:29:11;;;;;;;;;;;;;;;;;;5047769;28;19912;-48
2022/06/28 00:31:37;;;;;;;;;;;;;;;;;;5046577;28;20379;-51
2022/06/28 00:34:03;;;;;;;;;;;;;;;;;;5046900;28;19947;-49
2022/06/28 00:36:29;;;;;;;;;;;;;;;;;;5046358;28;20333;-51
2022/06/28 00:38:55;;;;;;;;;;;;;;;;;;5046258;28;19924;-49
2022/06/28 00:41:21;;;;;;;;;;;;;;;;;;5045475;28;19913;-49
2022/06/28 00:43:47;;;;;;;;;;;;;;;;;;5045850;28;19917;-48
2022/06/28 00:46:13;;;;;;;;;;;;;;;;;;5046786;28;20410;-50
2022/06/28 00:48:39;;;;;;;;;;;;;;;;;;5045675;28;19908;-49
2022/06/28 00:51:04;;;;;;;;;;;;;;;;;;5046702;28;19909;-51
2022/06/28 00:53:30;;;;;;;;;;;;;;;;;;5045870;28;20392;-48
2022/06/28 00:55:56;;;;;;;;;;;;;;;;;;5046003;28;20003;-47
2022/06/28 00:58:22;;;;;;;;;;;;;;;;;;5045894;28;19924;-50
2022/06/28 01:00:48;;;;;;;;;;;;;;;;;;5045513;28;20368;-47
2022/06/28 01:03:15;;;;;;;;;;;;;;;;;;5045762;28;19971;-49
2022/06/28 01:05:41;;;;;;;;;;;;;;;;;;5045823;28;20010;-48
2022/06/28 01:08:08;;;;;;;;;;;;;;;;;;5046480;28;19999;-51
2022/06/28 01:10:34;;;;;;;;;;;;;;;;;;5046149;28;19954;-51
2022/06/28 01:12:59;;;;;;;;;;;;;;;;;;5045479;28;19909;-50
2022/06/28 01:15:25;;;;;;;;;;;;;;;;;;5045849;28;20323;-50
2022/06/28 01:17:51;;;;;;;;;;;;;;;;;;5045107;28;19922;-52
2022/06/28 01:20:17;;;;;;;;;;;;;;;;;;5045865;28;19966;-51
2022/06/28 01:22:44;;;;;;;;;;;;;;;;;;5045313;28;19905;-48
2022/06/28 01:25:10;;;;;;;;;;;;;;;;;;5045542;28;19954;-51
2022/06/28 01:27:36;;;;;;;;;;;;;;;;;;5045938;28;19913;-47
2022/06/28 01:30:02;;;;;;;;;;;;;;;;;;5045358;28;19972;-50
2022/06/28 01:32:28;;;;;;;;;;;;;;;;;;5045014;28;19913;-51
2022/06/28 01:34:55;;;;;;;;;;;;;;;;;;5045622;28;19915;-50
2022/06/28 01:37:21;;;;;;;;;;;;;;;;;;5045243;28;19955;-49
2022/06/28 01:39:47;;;;;;;;;;;;;;;;;;5045248;28;20473;-51
2022/06/28 01:42:12;;;;;;;;;;;;;;;;;;5045360;28;19966;-51
2022/06/28 01:44:38;;;;;;;;;;;;;;;;;;5045079;28;19909;-50
2022/06/28 01:47:04;;;;;;;;;;;;;;;;;;5045701;28;19919;-50
2022/06/28 01:49:31;;;;;;;;;;;;;;;;;;5045122;28;19909;-49
2022/06/28 01:51:58;;;;;;;;;;;;;;;;;;5060524;28;19919;-50
2022/06/28 01:54:25;;;;;;;;;;;;;;;;;;5045313;28;19913;-51
2022/06/28 01:56:51;;;;;;;;;;;;;;;;;;5044801;28;20021;-49
2022/06/28 01:59:17;;;;;;;;;;;;;;;;;;5044999;28;20011;-49
2022/06/28 02:01:43;;;;;;;;;;;;;;;;;;5044844;28;19916;-51
2022/06/28 02:04:09;;;;;;;;;;;;;;;;;;5045113;28;19909;-48
2022/06/28 02:06:35;;;;;;;;;;;;;;;;;;5045759;28;19916;-49
2022/06/28 02:09:01;;;;;;;;;;;;;;;;;;5045200;28;19913;-48
2022/06/28 02:11:27;;;;;;;;;;;;;;;;;;5044924;28;19928;-48
2022/06/28 02:13:53;;;;;;;;;;;;;;;;;;5045081;28;19955;-48
2022/06/28 02:16:19;;;;;;;;;;;;;;;;;;5044882;28;19916;-50
2022/06/28 02:18:46;;;;;;;;;;;;;;;;;;5060272;28;20026;-49
2022/06/28 02:21:12;;;;;;;;;;;;;;;;;;5066006;28;19912;-51
2022/06/28 02:23:38;;;;;;;;;;;;;;;;;;5066205;28;20399;-48
2022/06/28 02:26:04;;;;;;;;;;;;;;;;;;5066984;28;19954;-50
2022/06/28 02:28:30;;;;;;;;;;;;;;;;;;5065929;28;19909;-51
2022/06/28 02:30:56;;;;;;;;;;;;;;;;;;5065597;28;19965;-51
2022/06/28 02:33:22;;;;;;;;;;;;;;;;;;5065980;28;19966;-48
2022/06/28 02:41:17;;;;;;;;;;;;;;;;;;5066309;28;19931;-48
2022/06/28 02:43:43;;;;;;;;;;;;;;;;;;5066098;28;20003;-51
2022/06/28 02:46:09;;;;;;;;;;;;;;;;;;5065980;28;19952;-50
2022/06/28 02:48:35;;;;;;;;;;;;;;;;;;5066663;28;19908;-49
2022/06/28 02:51:01;;;;;;;;;;;;;;;;;;5065908;28;19915;-50
2022/06/28 02:53:27;;;;;;;;;;;;;;;;;;5065832;28;19953;-51
2022/06/28 02:55:52;;;;;;;;;;;;;;;;;;5065796;28;19905;-51
2022/06/28 02:58:18;;;;;;;;;;;;;;;;;;5065554;28;19942;-49
2022/06/28 03:00:44;;;;;;;;;;;;;;;;;;5065626;28;19943;-48
2022/06/28 03:03:11;;;;;;;;;;;;;;;;;;5065868;28;20007;-52
2022/06/28 03:05:37;;;;;;;;;;;;;;;;;;5068919;28;19958;-51
2022/06/28 03:08:02;;;;;;;;;;;;;;;;;;5069416;28;19912;-52
2022/06/28 03:10:28;;;;;;;;;;;;;;;;;;5069421;28;19919;-51
2022/06/28 03:12:54;;;;;;;;;;;;;;;;;;5068896;28;19916;-50
2022/06/28 03:15:20;;;;;;;;;;;;;;;;;;5069728;28;19908;-50
2022/06/28 03:17:46;;;;;;;;;;;;;;;;;;5069059;28;19966;-49
2022/06/28 03:20:12;;;;;;;;;;;;;;;;;;5068393;28;20003;-49
2022/06/28 03:22:38;;;;;;;;;;;;;;;;;;5067295;28;19912;-48
2022/06/28 03:25:05;;;;;;;;;;;;;;;;;;5068743;28;20334;-51
2022/06/28 03:27:31;;;;;;;;;;;;;;;;;;5067773;28;19970;-51
2022/06/28 03:29:58;;;;;;;;;;;;;;;;;;5068238;28;20342;-49
2022/06/28 03:32:24;;;;;;;;;;;;;;;;;;5067516;28;19912;-51
2022/06/28 03:34:50;;;;;;;;;;;;;;;;;;5067552;28;19915;-51
2022/06/28 03:37:15;;;;;;;;;;;;;;;;;;5067400;28;19924;-49
2022/06/28 03:39:41;;;;;;;;;;;;;;;;;;5067185;28;19912;-50
2022/06/28 03:42:07;;;;;;;;;;;;;;;;;;5068158;28;19912;-48
2022/06/28 03:44:33;;;;;;;;;;;;;;;;;;5068041;28;19908;-50
2022/06/28 03:46:59;;;;;;;;;;;;;;;;;;5067321;28;19905;-49
2022/06/28 03:49:25;;;;;;;;;;;;;;;;;;5067467;28;20375;-49
2022/06/28 03:51:51;;;;;;;;;;;;;;;;;;5067337;28;19909;-49
2022/06/28 03:54:17;;;;;;;;;;;;;;;;;;5067574;28;20306;-49
2022/06/28 03:56:43;;;;;;;;;;;;;;;;;;5066872;28;19913;-50
2022/06/28 03:59:08;;;;;;;;;;;;;;;;;;5067361;28;20103;-50
2022/06/28 04:01:34;;;;;;;;;;;;;;;;;;5067269;28;19916;-51
2022/06/28 04:04:00;;;;;;;;;;;;;;;;;;5066937;28;19909;-51
2022/06/28 04:06:26;;;;;;;;;;;;;;;;;;5066928;28;20387;-48
2022/06/28 04:08:52;;;;;;;;;;;;;;;;;;5066946;28;19912;-49
2022/06/28 04:11:18;;;;;;;;;;;;;;;;;;5066867;28;20363;-51
2022/06/28 04:13:45;;;;;;;;;;;;;;;;;;5066608;28;19908;-47
2022/06/28 04:16:11;;;;;;;;;;;;;;;;;;5066696;28;19962;-50
2022/06/28 04:18:37;;;;;;;;;;;;;;;;;;5067066;28;19921;-49
2022/06/28 04:21:03;;;;;;;;;;;;;;;;;;5066643;28;19942;-50
2022/06/28 04:23:29;;;;;;;;;;;;;;;;;;5066519;28;19986;-51
2022/06/28 04:25:55;;;;;;;;;;;;;;;;;;5066747;28;20416;-50
2022/06/28 04:28:20;;;;;;;;;;;;;;;;;;5066624;28;20007;-48
2022/06/28 04:30:46;;;;;;;;;;;;;;;;;;5066208;28;20187;-50
2022/06/28 04:33:12;;;;;;;;;;;;;;;;;;5066454;28;20408;-50
2022/06/28 04:35:38;;;;;;;;;;;;;;;;;;5066063;28;19908;-48
2022/06/28 04:38:05;;;;;;;;;;;;;;;;;;5067200;28;20258;-51
2022/06/28 04:40:31;;;;;;;;;;;;;;;;;;5066251;28;19909;-51
2022/06/28 04:42:57;;;;;;;;;;;;;;;;;;5066141;28;20505;-51
2022/06/28 04:45:23;;;;;;;;;;;;;;;;;;5066387;28;19982;-49
2022/06/28 04:47:49;;;;;;;;;;;;;;;;;;5066030;28;20054;-47
2022/06/28 04:50:15;;;;;;;;;;;;;;;;;;5066087;28;20409;-50
2022/06/28 04:52:42;;;;;;;;;;;;;;;;;;5065717;28;19909;-48
2022/06/28 04:55:08;;;;;;;;;;;;;;;;;;5066095;28;19909;-49
2022/06/28 04:57:34;;;;;;;;;;;;;;;;;;5066215;28;19962;-50
2022/06/28 05:00:00;;;;;;;;;;;;;;;;;;5065759;28;20002;-50
2022/06/28 05:02:27;;;;;;;;;;;;;;;;;;5065823;28;19908;-47
2022/06/28 05:04:54;;;;;;;;;;;;;;;;;;5065830;28;19916;-50
2022/06/28 05:07:20;;;;;;;;;;;;;;;;;;5065926;28;19978;-50
2022/06/28 05:09:46;;;;;;;;;;;;;;;;;;5065522;28;19944;-49
2022/06/28 05:12:11;;;;;;;;;;;;;;;;;;5065808;28;20314;-47
2022/06/28 05:14:37;;;;;;;;;;;;;;;;;;5065667;28;19923;-50
2022/06/28 05:17:03;;;;;;;;;;;;;;;;;;5066384;28;19916;-50
2022/06/28 05:19:33;;;;;;;;;;;;;;;;;;5065869;28;20445;-49
2022/06/28 05:21:59;;;;;;;;;;;;;;;;;;5065422;28;19994;-47
2022/06/28 05:24:25;;;;;;;;;;;;;;;;;;5065809;28;20443;-50
2022/06/28 05:26:52;;;;;;;;;;;;;;;;;;5065034;28;19908;-49
2022/06/28 05:29:18;;;;;;;;;;;;;;;;;;5065295;28;19963;-48
2022/06/28 05:31:44;;;;;;;;;;;;;;;;;;5064944;28;19943;-47
2022/06/28 05:34:10;;;;;;;;;;;;;;;;;;5065366;28;19915;-50
2022/06/28 05:36:37;;;;;;;;;;;;;;;;;;5066082;28;19909;-51
2022/06/28 05:39:04;;;;;;;;;;;;;;;;;;5065728;28;20373;-47
2022/06/28 05:41:31;;;;;;;;;;;;;;;;;;5065122;28;19916;-50
2022/06/28 05:43:57;;;;;;;;;;;;;;;;;;5065263;28;19916;-51
2022/06/28 05:46:25;;;;;;;;;;;;;;;;;;5065623;28;19917;-51
2022/06/28 05:48:50;;;;;;;;;;;;;;;;;;5064963;28;20354;-51
2022/06/28 05:51:16;;;;;;;;;;;;;;;;;;5065085;28;20323;-51
2022/06/28 05:53:43;;;;;;;;;;;;;;;;;;5064999;28;20379;-50
2022/06/28 05:56:09;;;;;;;;;;;;;;;;;;5065154;28;19912;-49
2022/06/28 05:58:36;;;;;;;;;;;;;;;;;;5065362;28;19919;-48
2022/06/28 06:01:03;;;;;;;;;;;;;;;;;;5064913;28;19943;-49
2022/06/28 06:03:30;;;;;;;;;;;;;;;;;;5064943;28;19909;-48
2022/06/28 06:05:56;;;;;;;;;;;;;;;;;;5065054;28;20418;-51
2022/06/28 06:08:22;;;;;;;;;;;;;;;;;;5065166;28;19916;-48
2022/06/28 06:10:48;;;;;;;;;;;;;;;;;;5064648;28;19913;-50
2022/06/28 06:13:14;;;;;;;;;;;;;;;;;;5065068;28;19909;-48
2022/06/28 06:15:41;;;;;;;;;;;;;;;;;;5064495;28;19942;-50
2022/06/28 06:18:07;;;;;;;;;;;;;;;;;;5065669;28;20137;-49
2022/06/28 06:20:32;;;;;;;;;;;;;;;;;;5065340;28;20410;-49
2022/06/28 06:22:58;;;;;;;;;;;;;;;;;;5064923;28;19999;-50
2022/06/28 06:25:24;;;;;;;;;;;;;;;;;;5065035;28;19909;-48
2022/06/28 06:27:50;;;;;;;;;;;;;;;;;;5063398;28;20054;-50
2022/06/28 06:30:16;;;;;;;;;;;;;;;;;;5064549;28;20380;-51
2022/06/28 06:32:42;;;;;;;;;;;;;;;;;;5064622;28;19908;-47
2022/06/28 06:35:08;;;;;;;;;;;;;;;;;;5065221;28;19920;-47
2022/06/28 06:37:34;;;;;;;;;;;;;;;;;;5065120;28;19913;-52
2022/06/28 06:40:01;;;;;;;;;;;;;;;;;;5066555;28;20042;-48
2022/06/28 06:42:27;;;;;;;;;;;;;;;;;;5068648;28;19916;-51
2022/06/28 06:44:55;;;;;;;;;;;;;;;;;;5068048;28;20406;-49
2022/06/28 06:47:21;;;;;;;;;;;;;;;;;;5068462;28;19915;-52
2022/06/28 06:49:47;;;;;;;;;;;;;;;;;;5068155;28;19983;-49
2022/06/28 06:52:13;;;;;;;;;;;;;;;;;;5068312;28;19913;-51
2022/06/28 06:54:39;;;;;;;;;;;;;;;;;;5067997;28;20448;-51
2022/06/28 06:57:05;;;;;;;;;;;;;;;;;;5068877;28;19916;-47
2022/06/28 06:59:30;;;;;;;;;;;;;;;;;;5068260;28;19913;-48
2022/06/28 07:01:56;;;;;;;;;;;;;;;;;;5068371;28;20003;-50
2022/06/28 07:04:23;;;;;;;;;;;;;;;;;;5068154;28;19908;-50
2022/06/28 07:06:50;;;;;;;;;;;;;;;;;;5067957;28;19909;-49
2022/06/28 07:09:16;;;;;;;;;;;;;;;;;;5068100;28;19909;-51
2022/06/28 07:11:42;;;;;;;;;;;;;;;;;;5067766;28;19916;-49
2022/06/28 07:14:08;;;;;;;;;;;;;;;;;;5068235;28;20422;-47
2022/06/28 07:16:34;;;;;;;;;;;;;;;;;;5068403;28;20003;-48
2022/06/28 07:18:59;;;;;;;;;;;;;;;;;;5067849;28;19919;-50
2022/06/28 07:21:27;;;;;;;;;;;;;;;;;;5067827;28;20038;-47
2022/06/28 07:23:53;;;;;;;;;;;;;;;;;;5068034;28;19974;-51
2022/06/28 07:26:19;;;;;;;;;;;;;;;;;;5067865;28;20387;-51
2022/06/28 07:28:45;;;;;;;;;;;;;;;;;;5067155;28;19909;-52
2022/06/28 07:31:11;;;;;;;;;;;;;;;;;;5067817;28;19931;-51
2022/06/28 07:33:37;;;;;;;;;;;;;;;;;;5068150;28;19916;-48
2022/06/28 07:36:04;;;;;;;;;;;;;;;;;;5067755;28;19950;-52
2022/06/28 07:38:29;;;;;;;;;;;;;;;;;;5067393;28;19912;-50
2022/06/28 07:40:56;;;;;;;;;;;;;;;;;;5067487;28;19982;-51
2022/06/28 07:43:24;;;;;;;;;;;;;;;;;;5067245;28;19915;-50
2022/06/28 07:45:51;;;;;;;;;;;;;;;;;;5067245;28;19908;-48
2022/06/28 07:48:19;;;;;;;;;;;;;;;;;;5067683;28;19923;-49
2022/06/28 07:53:30;;;;;;;;;;;;;;;;;;5066978;28;19961;-51
2022/06/28 07:55:56;;;;;;;;;;;;;;;;;;5067332;28;19912;-50
2022/06/28 07:58:21;;;;;;;;;;;;;;;;;;5066863;28;19969;-48
2022/06/28 08:00:47;;;;;;;;;;;;;;;;;;5066848;28;20414;-51
2022/06/28 08:03:13;;;;;;;;;;;;;;;;;;5067099;28;20015;-51
2022/06/28 08:05:40;;;;;;;;;;;;;;;;;;5066740;28;19916;-50
2022/06/28 08:08:07;;;;;;;;;;;;;;;;;;5067493;28;19909;-51
2022/06/28 08:10:33;;;;;;;;;;;;;;;;;;5067664;28;19982;-50
2022/06/28 08:12:59;;;;;;;;;;;;;;;;;;5066550;28;20396;-47
2022/06/28 08:15:26;;;;;;;;;;;;;;;;;;5067024;28;19915;-51
2022/06/28 08:17:53;;;;;;;;;;;;;;;;;;5066861;28;19912;-51
2022/06/28 08:20:20;;;;;;;;;;;;;;;;;;5066865;28;20223;-48
2022/06/28 08:22:46;;;;;;;;;;;;;;;;;;5066270;28;19908;-50
2022/06/28 08:25:11;;;;;;;;;;;;;;;;;;5065423;28;19935;-51
2022/06/28 08:27:37;;;;;;;;;;;;;;;;;;5066472;28;19917;-47
2022/06/28 08:30:03;;;;;;;;;;;;;;;;;;5067390;28;20130;-51
2022/06/28 08:32:29;;;;;;;;;;;;;;;;;;5066320;28;19913;-49
2022/06/28 08:34:55;;;;;;;;;;;;;;;;;;5066506;28;19909;-50
2022/06/28 08:37:21;;;;;;;;;;;;;;;;;;5066376;28;19966;-50
2022/06/28 08:39:48;;;;;;;;;;;;;;;;;;5066230;28;20613;-49
2022/06/28 08:42:14;;;;;;;;;;;;;;;;;;5066091;28;19923;-50
2022/06/28 08:44:39;;;;;;;;;;;;;;;;;;5064868;28;19912;-50
2022/06/28 08:47:05;;;;;;;;;;;;;;;;;;5067163;28;19905;-51
2022/06/28 08:49:32;;;;;;;;;;;;;;;;;;5066090;28;20455;-51
2022/06/28 08:51:58;;;;;;;;;;;;;;;;;;5065817;28;20431;-50
2022/06/28 08:54:24;;;;;;;;;;;;;;;;;;5064896;28;19912;-47
2022/06/28 08:56:50;;;;;;;;;;;;;;;;;;5065467;28;19951;-50
2022/06/28 08:59:16;;;;;;;;;;;;;;;;;;5065824;28;19909;-51
2022/06/28 09:01:43;;;;;;;;;;;;;;;;;;5065410;28;19908;-49
2022/06/28 09:04:09;;;;;;;;;;;;;;;;;;5065381;28;20371;-50
2022/06/28 09:06:34;;;;;;;;;;;;;;;;;;5066302;28;20011;-50
2022/06/28 09:09:00;;;;;;;;;;;;;;;;;;5065985;28;19944;-51
2022/06/28 09:11:26;;;;;;;;;;;;;;;;;;5065783;28;20337;-47
2022/06/28 09:13:52;;;;;;;;;;;;;;;;;;5065764;28;19917;-51
2022/06/28 09:16:19;;;;;;;;;;;;;;;;;;5065754;28;20271;-49
2022/06/28 09:18:45;;;;;;;;;;;;;;;;;;5065369;28;20275;-50
2022/06/28 09:21:11;;;;;;;;;;;;;;;;;;5065581;28;19909;-48
2022/06/28 09:23:38;;;;;;;;;;;;;;;;;;5066082;28;19970;-47
2022/06/28 09:26:06;;;;;;;;;;;;;;;;;;5066155;28;19912;-47
2022/06/28 09:28:32;;;;;;;;;;;;;;;;;;5065237;28;19909;-52
2022/06/28 09:30:58;;;;;;;;;;;;;;;;;;5065532;28;19912;-47
2022/06/28 09:33:25;;;;;;;;;;;;;;;;;;5065327;28;19999;-49
2022/06/28 09:35:51;;;;;;;;;;;;;;;;;;5065286;28;19912;-51
2022/06/28 09:38:17;;;;;;;;;;;;;;;;;;5065302;28;19925;-52
2022/06/28 09:40:43;;;;;;;;;;;;;;;;;;5065181;28;20306;-50
2022/06/28 09:43:09;;;;;;;;;;;;;;;;;;5065305;28;19909;-49
2022/06/28 09:45:35;;;;;;;;;;;;;;;;;;5065697;28;19913;-51
2022/06/28 09:48:01;;;;;;;;;;;;;;;;;;5065315;28;19952;-48
2022/06/28 09:50:27;;;;;;;;;;;;;;;;;;5065321;28;20421;-47
2022/06/28 09:52:54;;;;;;;;;;;;;;;;;;5065213;28;19909;-51
2022/06/28 09:55:19;;;;;;;;;;;;;;;;;;5065301;28;19987;-50
2022/06/28 09:57:45;;;;;;;;;;;;;;;;;;5065033;28;19966;-51
2022/06/28 10:00:11;;;;;;;;;;;;;;;;;;5065222;28;19908;-50
2022/06/28 10:02:38;;;;;;;;;;;;;;;;;;5065331;28;19917;-48
2022/06/28 10:05:04;;;;;;;;;;;;;;;;;;5065834;28;19923;-47
2022/06/28 10:07:31;;;;;;;;;;;;;;;;;;5064836;28;19912;-47
2022/06/28 10:09:57;;;;;;;;;;;;;;;;;;5065050;28;19966;-46
2022/06/28 10:15:08;;;;;;;;;;;;;;;;;;5068911;28;19974;-48
2022/06/28 10:17:34;;;;;;;;;;;;;;;;;;5068105;28;20354;-48
2022/06/28 10:20:01;;;;;;;;;;;;;;;;;;5067660;28;20395;-48
2022/06/28 10:22:28;;;;;;;;;;;;;;;;;;5068594;28;20514;-52
2022/06/28 10:24:54;;;;;;;;;;;;;;;;;;5069067;28;19962;-51
2022/06/28 10:27:20;;;;;;;;;;;;;;;;;;5068646;28;19916;-47
2022/06/28 10:29:46;;;;;;;;;;;;;;;;;;5068784;28;19919;-49
2022/06/28 10:32:11;;;;;;;;;;;;;;;;;;5068863;28;19915;-48
2022/06/28 10:34:38;;;;;;;;;;;;;;;;;;5069300;28;20346;-50
2022/06/28 10:37:04;;;;;;;;;;;;;;;;;;5069702;28;19908;-48
2022/06/28 10:39:32;;;;;;;;;;;;;;;;;;5068639;28;20391;-50
2022/06/28 10:41:58;;;;;;;;;;;;;;;;;;5068399;28;20303;-50
2022/06/28 10:44:26;;;;;;;;;;;;;;;;;;5068445;28;19909;-48
2022/06/28 10:46:52;;;;;;;;;;;;;;;;;;5068667;28;19909;-49
2022/06/28 10:49:18;;;;;;;;;;;;;;;;;;5068614;28;20003;-49
2022/06/28 10:51:44;;;;;;;;;;;;;;;;;;5068176;28;19915;-47
2022/06/28 10:54:10;;;;;;;;;;;;;;;;;;5068384;28;19919;-47
2022/06/28 10:56:36;;;;;;;;;;;;;;;;;;5068497;28;19920;-51
2022/06/28 10:59:02;;;;;;;;;;;;;;;;;;5068276;28;19920;-51
2022/06/28 11:01:28;;;;;;;;;;;;;;;;;;5067958;28;19912;-49
2022/06/28 11:03:54;;;;;;;;;;;;;;;;;;5068198;28;19911;-49
2022/06/28 11:06:20;;;;;;;;;;;;;;;;;;5068085;28;20414;-50
2022/06/28 11:08:46;;;;;;;;;;;;;;;;;;5067904;28;19915;-47
2022/06/28 11:11:12;;;;;;;;;;;;;;;;;;5068006;28;20280;-52
2022/06/28 11:13:38;;;;;;;;;;;;;;;;;;5067894;28;20007;-48
2022/06/28 11:16:04;;;;;;;;;;;;;;;;;;5068930;28;19948;-47
2022/06/28 11:18:30;;;;;;;;;;;;;;;;;;5067658;28;19912;-49
2022/06/28 11:20:56;;;;;;;;;;;;;;;;;;5067959;28;19920;-49
2022/06/28 11:23:22;;;;;;;;;;;;;;;;;;5067923;28;20399;-50
2022/06/28 11:28:33;;;;;;;;;;;;;;;;;;5068157;28;20288;-49
2022/06/28 11:30:59;;;;;;;;;;;;;;;;;;5067872;28;20007;-50
2022/06/28 11:33:25;;;;;;;;;;;;;;;;;;5067591;28;19923;-51
2022/06/28 11:35:51;;;;;;;;;;;;;;;;;;5067281;28;19912;-51
2022/06/28 11:38:17;;;;;;;;;;;;;;;;;;5067611;28;19917;-50
2022/06/28 11:40:43;;;;;;;;;;;;;;;;;;5067000;28;19908;-51
2022/06/28 11:43:09;;;;;;;;;;;;;;;;;;5067614;28;19997;-50
2022/06/28 11:45:36;;;;;;;;;;;;;;;;;;5067965;28;20023;-48
2022/06/28 11:48:02;;;;;;;;;;;;;;;;;;5068378;28;19915;-52
2022/06/28 11:50:28;;;;;;;;;;;;;;;;;;5068592;28;20100;-52
2022/06/28 11:52:54;;;;;;;;;;;;;;;;;;5068843;28;20012;-52
2022/06/28 11:55:19;;;;;;;;;;;;;;;;;;5068714;28;20023;-52
2022/06/28 11:57:45;;;;;;;;;;;;;;;;;;5068274;28;19920;-51
2022/06/28 12:00:13;;;;;;;;;;;;;;;;;;5067814;28;19912;-50
2022/06/28 12:02:39;;;;;;;;;;;;;;;;;;5066663;28;19909;-50
2022/06/28 12:05:05;;;;;;;;;;;;;;;;;;5067724;28;20004;-52
2022/06/28 12:07:32;;;;;;;;;;;;;;;;;;5066695;28;19912;-51
2022/06/28 12:09:59;;;;;;;;;;;;;;;;;;5066998;28;20417;-49
2022/06/28 12:12:26;;;;;;;;;;;;;;;;;;5066791;28;19909;-52
2022/06/28 12:14:51;;;;;;;;;;;;;;;;;;5066819;28;19919;-50
2022/06/28 12:17:17;;;;;;;;;;;;;;;;;;5065593;28;19916;-51
2022/06/28 12:19:43;;;;;;;;;;;;;;;;;;5066487;28;19915;-52
2022/06/28 12:22:09;;;;;;;;;;;;;;;;;;5066537;28;19943;-50
2022/06/28 12:24:36;;;;;;;;;;;;;;;;;;5067417;28;19911;-51
2022/06/28 12:27:03;;;;;;;;;;;;;;;;;;5066504;28;19915;-50
2022/06/28 12:29:29;;;;;;;;;;;;;;;;;;5066412;28;19948;-50
2022/06/28 12:31:55;;;;;;;;;;;;;;;;;;5066445;28;19954;-51
2022/06/28 12:34:20;;;;;;;;;;;;;;;;;;5066386;28;19917;-50
2022/06/28 12:36:46;;;;;;;;;;;;;;;;;;5065523;28;20430;-52
2022/06/28 12:39:12;;;;;;;;;;;;;;;;;;5066240;28;19923;-51
2022/06/28 12:41:39;;;;;;;;;;;;;;;;;;5065935;28;19920;-51
2022/06/28 12:44:05;;;;;;;;;;;;;;;;;;5066982;28;19908;-52
2022/06/28 12:46:31;;;;;;;;;;;;;;;;;;5064993;28;19920;-52
2022/06/28 12:48:57;;;;;;;;;;;;;;;;;;5065587;28;20287;-51
2022/06/28 12:51:24;;;;;;;;;;;;;;;;;;5065475;28;20017;-50
2022/06/28 12:53:50;;;;;;;;;;;;;;;;;;5064600;28;19909;-50
2022/06/28 12:56:16;;;;;;;;;;;;;;;;;;5065077;28;19919;-51
2022/06/28 12:58:42;;;;;;;;;;;;;;;;;;5063472;28;19927;-53
2022/06/28 13:01:08;;;;;;;;;;;;;;;;;;5065916;28;19923;-51
2022/06/28 13:03:34;;;;;;;;;;;;;;;;;;5065616;28;20034;-49
2022/06/28 13:06:00;;;;;;;;;;;;;;;;;;5065194;28;20010;-53
2022/06/28 13:08:26;;;;;;;;;;;;;;;;;;5063818;28;19934;-49
2022/06/28 13:10:52;;;;;;;;;;;;;;;;;;5065196;28;19913;-51
2022/06/28 13:13:20;;;;;;;;;;;;;;;;;;5065066;28;19952;-52
2022/06/28 13:15:47;;;;;;;;;;;;;;;;;;5064809;28;19913;-53
2022/06/28 13:18:13;;;;;;;;;;;;;;;;;;5064832;28;19913;-52
2022/06/28 13:20:40;;;;;;;;;;;;;;;;;;5065042;28;20381;-52
2022/06/28 13:23:06;;;;;;;;;;;;;;;;;;5065345;28;19908;-52
2022/06/28 13:25:32;;;;;;;;;;;;;;;;;;5064522;28;19920;-50
2022/06/28 13:27:58;;;;;;;;;;;;;;;;;;5065081;28;19908;-53
2022/06/28 13:30:24;;;;;;;;;;;;;;;;;;5065039;28;20002;-53
2022/06/28 13:32:50;;;;;;;;;;;;;;;;;;5064231;28;19967;-53
2022/06/28 13:35:16;;;;;;;;;;;;;;;;;;5064603;28;20338;-53
2022/06/28 13:37:42;;;;;;;;;;;;;;;;;;5064163;28;20359;-54
2022/06/28 13:40:08;;;;;;;;;;;;;;;;;;5064969;28;19913;-53
2022/06/28 13:42:35;;;;;;;;;;;;;;;;;;5064931;28;20318;-51
2022/06/28 13:45:02;;;;;;;;;;;;;;;;;;5065732;28;19955;-52
2022/06/28 13:47:28;;;;;;;;;;;;;;;;;;5065054;28;19909;-52
2022/06/28 13:49:54;;;;;;;;;;;;;;;;;;5065064;28;19919;-51
2022/06/28 13:52:20;;;;;;;;;;;;;;;;;;5065017;28;19917;-53
2022/06/28 13:54:46;;;;;;;;;;;;;;;;;;5063705;28;20348;-51
2022/06/28 13:57:16;;;;;;;;;;;;;;;;;;5064655;28;19920;-52
2022/06/28 13:59:46;;;;;;;;;;;;;;;;;;5064082;28;21229;-50
2022/06/28 14:02:13;;;;;;;;;;;;;;;;;;5064899;28;19955;-53
2022/06/28 14:04:39;;;;;;;;;;;;;;;;;;5065015;28;20278;-50
2022/06/28 14:07:05;;;;;;;;;;;;;;;;;;5065701;28;19908;-50
2022/06/28 14:09:32;;;;;;;;;;;;;;;;;;5064756;28;20276;-52
2022/06/28 14:11:59;;;;;;;;;;;;;;;;;;5064834;28;21078;-52
2022/06/28 14:14:25;;;;;;;;;;;;;;;;;;5065081;28;20289;-49
2022/06/28 14:16:52;;;;;;;;;;;;;;;;;;5063966;28;19943;-51
2022/06/28 14:19:18;;;;;;;;;;;;;;;;;;5062228;28;19918;-52
2022/06/28 14:21:44;;;;;;;;;;;;;;;;;;5065570;28;19908;-53
2022/06/28 14:24:10;;;;;;;;;;;;;;;;;;5064556;28;19962;-52
2022/06/28 14:26:36;;;;;;;;;;;;;;;;;;5065727;28;20256;-50
2022/06/28 14:29:02;;;;;;;;;;;;;;;;;;5065843;28;19920;-53
2022/06/28 14:31:28;;;;;;;;;;;;;;;;;;5063173;28;19917;-53
2022/06/28 14:33:55;;;;;;;;;;;;;;;;;;5064250;28;19912;-53
2022/06/28 14:36:21;;;;;;;;;;;;;;;;;;5065436;28;19909;-51
2022/06/28 14:38:47;;;;;;;;;;;;;;;;;;5065106;28;19927;-53
2022/06/28 14:41:14;;;;;;;;;;;;;;;;;;5063566;28;19913;-53
2022/06/28 14:43:40;;;;;;;;;;;;;;;;;;5065035;28;20333;-52
2022/06/28 14:46:06;;;;;;;;;;;;;;;;;;5066675;28;19908;-52
2022/06/28 14:48:32;;;;;;;;;;;;;;;;;;5066030;28;19912;-53
2022/06/28 14:50:59;;;;;;;;;;;;;;;;;;5065871;28;19913;-53
2022/06/28 14:53:25;;;;;;;;;;;;;;;;;;5065193;28;19909;-52
2022/06/28 14:55:51;;;;;;;;;;;;;;;;;;5068612;28;19935;-53
2022/06/28 14:58:17;;;;;;;;;;;;;;;;;;5073088;28;19925;-53
2022/06/28 15:00:43;;;;;;;;;;;;;;;;;;5067383;28;19916;-50
2022/06/28 15:03:09;;;;;;;;;;;;;;;;;;5069562;28;19909;-53
2022/06/28 15:05:35;;;;;;;;;;;;;;;;;;5073045;28;19912;-53
2022/06/28 15:08:00;;;;;;;;;;;;;;;;;;5090075;28;19948;-52
2022/06/28 15:10:26;;;;;;;;;;;;;;;;;;5089760;28;20138;-54
2022/06/28 15:12:52;;;;;;;;;;;;;;;;;;5073492;28;19916;-53
2022/06/28 15:15:18;;;;;;;;;;;;;;;;;;5069761;28;19954;-55
2022/06/28 15:17:44;;;;;;;;;;;;;;;;;;5069371;28;19913;-56
2022/06/28 15:20:10;;;;;;;;;;;;;;;;;;5069568;28;19948;-57
2022/06/28 15:30:53;;;;;;;;;;;;;;;;;;5048861;28;20029;-52
2022/06/28 15:33:19;;;;;;;;;;;;;;;;;;5049216;28;19920;-50
2022/06/28 15:35:45;;;;;;;;;;;;;;;;;;5049199;28;19909;-50
2022/06/28 15:38:12;;;;;;;;;;;;;;;;;;5048913;28;19913;-53
2022/06/28 15:40:38;;;;;;;;;;;;;;;;;;5057329;28;19920;-50
2022/06/28 15:43:04;;;;;;;;;;;;;;;;;;5089902;28;19908;-52
2022/06/28 15:45:30;;;;;;;;;;;;;;;;;;5086370;28;19912;-53
2022/06/28 15:47:56;;;;;;;;;;;;;;;;;;5089319;28;19908;-53
2022/06/28 15:50:22;;;;;;;;;;;;;;;;;;5089128;28;19923;-53
2022/06/28 15:52:48;;;;;;;;;;;;;;;;;;5088607;28;20149;-53
2022/06/28 15:55:14;;;;;;;;;;;;;;;;;;5085478;28;20593;-53
2022/06/28 15:57:40;;;;;;;;;;;;;;;;;;5068214;28;20014;-51
2022/06/28 16:00:06;;;;;;;;;;;;;;;;;;5069496;28;20334;-52
2022/06/28 16:02:32;;;;;;;;;;;;;;;;;;5068621;28;19913;-53
2022/06/28 16:04:58;;;;;;;;;;;;;;;;;;5076685;28;19955;-53
2022/06/28 16:07:24;;;;;;;;;;;;;;;;;;5068778;28;19913;-53
2022/06/28 16:09:50;;;;;;;;;;;;;;;;;;5068321;28;19908;-53
2022/06/28 16:15:01;;;;;;;;;;;;;;;;;;5068622;28;20330;-52
2022/06/28 16:17:27;;;;;;;;;;;;;;;;;;5068498;28;19912;-54
2022/06/28 16:19:53;;;;;;;;;;;;;;;;;;5072898;28;20007;-53
2022/06/28 16:22:19;;;;;;;;;;;;;;;;;;5088378;28;19908;-53
2022/06/28 16:24:46;;;;;;;;;;;;;;;;;;5085650;28;19989;-53
2022/06/28 16:27:12;;;;;;;;;;;;;;;;;;5069789;28;19938;-53
2022/06/28 16:29:38;;;;;;;;;;;;;;;;;;5068701;28;20011;-52
2022/06/28 16:32:04;;;;;;;;;;;;;;;;;;5066177;28;19969;-53
2022/06/28 16:34:29;;;;;;;;;;;;;;;;;;5067884;28;20375;-53
2022/06/28 16:36:55;;;;;;;;;;;;;;;;;;5068127;28;19909;-53
2022/06/28 16:39:21;;;;;;;;;;;;;;;;;;5065312;28;19939;-53
2022/06/28 16:41:47;;;;;;;;;;;;;;;;;;5086188;28;19916;-53
2022/06/28 16:44:14;;;;;;;;;;;;;;;;;;5080805;28;19916;-52
2022/06/28 16:46:40;;;;;;;;;;;;;;;;;;5064681;28;19917;-54
2022/06/28 16:49:09;;;;;;;;;;;;;;;;;;5069639;28;19938;-54
2022/06/28 16:51:36;;;;;;;;;;;;;;;;;;5086886;28;19912;-52
2022/06/28 16:54:02;;;;;;;;;;;;;;;;;;5084800;28;19905;-53
2022/06/28 16:56:28;;;;;;;;;;;;;;;;;;5086125;28;19923;-53
2022/06/28 16:58:53;;;;;;;;;;;;;;;;;;5082458;28;19998;-53
2022/06/28 17:01:19;;;;;;;;;;;;;;;;;;5066142;28;19912;-54
2022/06/28 17:03:45;;;;;;;;;;;;;;;;;;5065654;28;19909;-53
2022/06/28 17:08:56;;;;;;;;;;;;;;;;;;5065331;28;20414;-53